Aérodrome :
LOGIN :

S'inscrire | Disclaimer

   EN    FR    IT 

 










Légende :    VFR   VFR Marginal   IFR   IFR Intensif   IFR Très Intensif
Visi : 
Plafond : 
>= 8 km
>= 3000ft
5 à 8 km
1000 à 3000 ft
1500m à 5 km
500 à 1000 ft
800 à 1500m
200 à 500 ft
< 800m
< 200 ft
Symboles :   Orages  Brouillard  Fortes neiges  Fortes précipitations  Vent > 20 kt
SIGMETs :   Divers  Orages  Givrage  Turbulence  Onde Orograph.  Cendres Volcan.







- Altitude de l'aérodrome : 235 ft
- Code IATA : BZG


EPBY - Bydgoszcz

DERNIER METAR :
  • 240830Z 28012KT 9999 FEW024 17/10 Q1013

METARs EXPIRÉS :
  • 240800Z 29012KT 9999 FEW020 15/10 Q1013
  • 240730Z 29010KT CAVOK 15/11 Q1013
  • 240700Z 29012KT 9999 FEW016 14/10 Q1013
  • 240630Z 28013KT CAVOK 14/10 Q1013
  • 240600Z 28012KT 9999 FEW011 13/10 Q1013

TAF TAF EPBY
Valide du 24 à 06h jusqu'au 25 à 06h UTC


240530Z 2406/2506 27008KT CAVOK
TEMPO 2406/2418 SHRA BKN025CB
BECMG 2408/2410 34010KT
PROB30
TEMPO 2409/2415 TSRA
BECMG 2421/2424 27006KT
Pas de NOTAMs connus pour ce terrain.



MET'MAP, la Météo Aéronautique d'un coup d'oeil ! - Copyright ORBIFLY Décembre 2007 - Disclaimer

ORBIFLY MET'MAP TEAM :

Programmation & Développement : Alexandra Zaïnal
Conception & Développement : Baudouin d'Aumeries
Co-Programmation & Développement : Marc-Olivier Méhu
Soutien technique & logistique : Manuel Goepfert

Contact : metmap@orbifly.com




SOURCES & CREDITS :

   NOAA